Time;durP1;ratioP1;P1;durP2;ratioP2;P2;SDS_P1;SDS_P2;PMS_P1;PMS_P2;Temp;Humidity;BMP_temperature;BMP_pressure;BME280_temperature;BME280_humidity;BME280_pressure;Samples;Min_cycle;Max_cycle;Signal;HPM_P1;HPM_P2
2023/10/10 00:01:07;;;;;;;6.03;4.05;;;10.10;99.90;;;;;;5026014;28;20037;-76
2023/10/10 00:03:39;;;;;;;7.70;4.32;;;10.00;99.90;;;;;;5036551;28;20047;-75
2023/10/10 00:06:08;;;;;;;5.25;3.60;;;10.10;99.90;;;;;;5030205;28;20458;-75
2023/10/10 00:08:40;;;;;;;6.95;4.10;;;10.10;99.90;;;;;;5015814;28;20502;-75
2023/10/10 00:11:09;;;;;;;7.07;4.25;;;10.10;99.90;;;;;;5028151;28;20037;-75
2023/10/10 00:13:58;;;;;;;4.88;4.15;;;10.10;99.90;;;;;;5029142;28;20048;-73
2023/10/10 00:16:26;;;;;;;5.93;3.83;;;10.10;99.90;;;;;;5034711;28;20060;-74
2023/10/10 00:18:55;;;;;;;4.30;3.60;;;10.10;99.90;;;;;;5034860;28;20029;-73
2023/10/10 00:21:28;;;;;;;7.25;4.07;;;10.20;99.90;;;;;;5025226;28;20140;-74
2023/10/10 00:23:55;;;;;;;5.55;3.75;;;10.20;99.90;;;;;;5035343;28;20029;-73
2023/10/10 00:26:25;;;;;;;5.85;4.50;;;10.20;99.90;;;;;;5030733;28;20033;-73
2023/10/10 00:28:56;;;;;;;8.68;4.22;;;10.10;99.90;;;;;;5037998;28;20051;-73
2023/10/10 00:31:28;;;;;;;5.63;4.00;;;10.10;99.90;;;;;;5038256;28;20139;-74
2023/10/10 00:33:55;;;;;;;4.95;3.30;;;10.10;99.90;;;;;;5036341;28;20141;-73
2023/10/10 00:36:22;;;;;;;5.07;3.30;;;10.20;99.90;;;;;;5025532;28;20041;-73
2023/10/10 00:41:50;;;;;;;5.45;3.75;;;10.20;99.90;;;;;;5037059;28;20037;-74
2023/10/10 00:44:17;;;;;;;5.40;3.90;;;10.20;99.90;;;;;;5009254;28;20044;-72
2023/10/10 00:46:49;;;;;;;5.13;3.28;;;10.20;99.90;;;;;;5033806;28;20033;-71
2023/10/10 00:49:17;;;;;;;5.85;4.20;;;10.20;99.90;;;;;;5034510;28;20056;-71
2023/10/10 00:51:47;;;;;;;5.50;3.65;;;10.20;99.90;;;;;;5012518;28;20502;-71
2023/10/10 00:56:54;;;;;;;5.32;3.45;;;10.10;99.90;;;;;;5029610;28;20045;-72
2023/10/10 00:59:20;;;;;;;5.93;3.30;;;10.00;99.90;;;;;;5032555;28;20040;-73
2023/10/10 01:01:47;;;;;;;4.72;4.18;;;10.10;99.90;;;;;;5024463;28;20596;-73
2023/10/10 01:04:13;;;;;;;6.07;4.20;;;10.00;99.90;;;;;;5027448;28;20094;-73
2023/10/10 01:06:41;;;;;;;7.68;3.95;;;10.00;99.90;;;;;;5030502;28;20037;-72
2023/10/10 01:09:28;;;;;;;5.72;3.70;;;10.00;99.90;;;;;;5012571;28;20426;-65
2023/10/10 01:11:54;;;;;;;5.60;3.65;;;10.00;99.90;;;;;;5027685;28;20086;-73
2023/10/10 01:14:24;;;;;;;6.20;4.00;;;10.00;99.90;;;;;;5029601;28;20037;-72
2023/10/10 01:17:01;;;;;;;6.65;3.88;;;10.10;99.90;;;;;;5031585;28;20416;-72
2023/10/10 01:19:30;;;;;;;6.40;3.35;;;10.10;99.90;;;;;;5022070;28;20536;-68
2023/10/10 01:21:59;;;;;;;4.07;3.38;;;10.00;99.90;;;;;;5027101;28;20076;-68
2023/10/10 01:24:26;;;;;;;6.03;3.65;;;9.90;99.90;;;;;;5014834;28;20154;-68
2023/10/10 01:27:03;;;;;;;5.57;4.00;;;9.90;99.90;;;;;;5023885;28;20032;-67
2023/10/10 01:29:37;;;;;;;6.35;3.88;;;10.00;99.90;;;;;;5029385;28;20037;-67
2023/10/10 01:32:04;;;;;;;8.85;3.70;;;10.10;99.90;;;;;;5009374;28;20160;-66
2023/10/10 01:34:44;;;;;;;4.90;3.60;;;10.20;99.90;;;;;;5027186;28;20037;-66
2023/10/10 01:37:14;;;;;;;4.68;3.42;;;10.20;99.90;;;;;;5009813;28;20048;-66
2023/10/10 01:40:06;;;;;;;6.40;4.50;;;10.10;99.90;;;;;;5018825;28;20043;-66
2023/10/10 01:42:36;;;;;;;5.30;3.88;;;10.20;99.90;;;;;;5019865;28;20053;-67
2023/10/10 01:45:07;;;;;;;6.65;4.00;;;10.20;99.90;;;;;;5024667;28;20113;-66
2023/10/10 01:47:34;;;;;;;5.38;3.72;;;10.20;99.90;;;;;;5025205;28;20044;-73
2023/10/10 01:50:08;;;;;;;7.93;3.95;;;10.20;99.90;;;;;;5025206;28;20033;-73
2023/10/10 01:52:37;;;;;;;5.38;3.97;;;10.30;99.90;;;;;;5022356;28;20402;-73
2023/10/10 01:55:05;;;;;;;5.40;4.03;;;10.20;99.90;;;;;;5004938;28;20562;-72
2023/10/10 01:57:31;;;;;;;5.38;3.60;;;10.30;99.90;;;;;;5016423;28;20152;-73
2023/10/10 01:59:58;;;;;;;4.88;3.70;;;10.30;99.90;;;;;;5025139;28;20717;-73
2023/10/10 02:02:26;;;;;;;5.85;3.47;;;10.30;99.90;;;;;;5026114;28;20040;-72
2023/10/10 02:04:59;;;;;;;6.88;4.22;;;10.30;99.90;;;;;;5026461;28;20063;-66
2023/10/10 02:07:31;;;;;;;4.82;3.50;;;10.30;99.90;;;;;;5027555;28;20029;-66
2023/10/10 02:10:17;;;;;;;7.38;3.92;;;10.30;99.90;;;;;;5022635;28;20152;-67
2023/10/10 02:12:46;;;;;;;8.05;3.88;;;10.30;99.90;;;;;;5026038;28;20113;-67
2023/10/10 02:15:15;;;;;;;6.15;4.07;;;10.30;99.90;;;;;;5026849;28;20044;-66
2023/10/10 02:18:38;;;;;;;6.35;3.67;;;10.30;99.90;;;;;;4998735;28;20033;-66
2023/10/10 02:23:01;;;;;;;5.18;3.58;;;10.20;99.90;;;;;;5012491;28;20037;-67
2023/10/10 02:27:56;;;;;;;5.30;3.90;;;10.20;99.90;;;;;;5013066;28;20045;-67
2023/10/10 02:30:34;;;;;;;4.93;3.72;;;10.30;99.90;;;;;;5013470;28;20537;-66
2023/10/10 02:35:58;;;;;;;4.88;3.30;;;10.30;99.90;;;;;;5020544;28;21202;-67
2023/10/10 02:38:40;;;;;;;7.05;4.10;;;10.30;99.90;;;;;;5022473;28;20091;-67
2023/10/10 02:44:09;;;;;;;6.35;4.40;;;10.30;99.90;;;;;;5022735;28;20052;-72
2023/10/10 02:46:39;;;;;;;5.28;4.18;;;10.30;99.90;;;;;;5027497;28;20037;-73
2023/10/10 02:49:29;;;;;;;7.05;4.40;;;10.30;99.90;;;;;;5025219;28;20049;-73
2023/10/10 02:51:56;;;;;;;6.10;3.63;;;10.30;99.90;;;;;;5009696;28;20150;-73
2023/10/10 02:56:56;;;;;;;8.05;3.90;;;10.30;99.90;;;;;;5011781;28;20041;-73
2023/10/10 02:59:37;;;;;;;7.28;4.55;;;10.30;99.90;;;;;;5019582;28;20072;-72
2023/10/10 03:02:11;;;;;;;6.40;4.40;;;10.30;99.90;;;;;;5020762;28;20033;-73
2023/10/10 03:07:28;;;;;;;7.25;4.18;;;10.30;99.90;;;;;;5027700;28;21867;-72
2023/10/10 03:12:37;;;;;;;7.72;4.00;;;10.30;99.90;;;;;;5028475;28;20445;-73
2023/10/10 03:15:13;;;;;;;7.05;4.13;;;10.30;99.90;;;;;;5025304;28;20045;-72
2023/10/10 03:17:52;;;;;;;6.85;3.95;;;10.30;99.90;;;;;;5007931;28;20040;-73
2023/10/10 03:31:08;;;;;;;5.38;3.25;;;10.30;99.90;;;;;;5021187;28;20394;-73
2023/10/10 03:33:46;;;;;;;5.13;3.45;;;10.30;99.90;;;;;;5019950;28;20124;-73
2023/10/10 05:25:51;;;;;;;7.53;4.40;;;10.30;99.90;;;;;;5020856;28;20099;-65
2023/10/10 05:28:23;;;;;;;7.07;3.85;;;10.30;99.90;;;;;;5021387;28;20574;-71
2023/10/10 05:30:55;;;;;;;8.48;4.60;;;10.30;99.90;;;;;;5024360;28;20127;-71
2023/10/10 05:33:21;;;;;;;9.68;4.50;;;10.30;99.90;;;;;;5026124;28;20052;-71
2023/10/10 05:35:47;;;;;;;6.70;3.80;;;10.30;99.90;;;;;;5027789;28;20033;-71
2023/10/10 05:38:15;;;;;;;7.68;4.57;;;10.30;99.90;;;;;;5025644;28;20506;-71
2023/10/10 05:40:43;;;;;;;6.03;3.45;;;10.30;99.90;;;;;;5019070;28;20037;-71
2023/10/10 05:43:09;;;;;;;7.50;4.45;;;10.30;99.90;;;;;;5024566;28;20037;-71
2023/10/10 05:45:36;;;;;;;4.63;3.22;;;10.30;99.90;;;;;;5024308;28;20037;-71
2023/10/10 05:48:02;;;;;;;6.78;3.70;;;10.30;99.90;;;;;;5040058;28;20793;-71
2023/10/10 05:50:28;;;;;;;5.43;3.35;;;10.40;99.90;;;;;;5024631;28;20033;-71
2023/10/10 05:52:53;;;;;;;6.25;3.60;;;10.40;99.90;;;;;;5031823;28;20048;-71
2023/10/10 05:55:20;;;;;;;5.72;3.83;;;10.40;99.90;;;;;;5033575;28;20414;-71
2023/10/10 05:57:46;;;;;;;6.15;4.18;;;10.40;99.90;;;;;;5026767;28;20044;-71
2023/10/10 06:00:13;;;;;;;6.38;4.00;;;10.40;99.90;;;;;;5030097;28;20136;-71
2023/10/10 06:02:45;;;;;;;6.20;4.13;;;10.40;99.90;;;;;;5030584;28;21653;-72
2023/10/10 06:05:12;;;;;;;5.47;3.33;;;10.40;99.90;;;;;;5028034;28;20029;-71
2023/10/10 06:07:44;;;;;;;6.35;3.80;;;10.40;99.90;;;;;;5021665;28;20039;-71
2023/10/10 06:10:16;;;;;;;;;;;10.40;99.90;;;;;;5032008;28;20110;-71
2023/10/10 06:12:43;;;;;;;6.03;3.85;;;10.40;99.90;;;;;;5029762;28;20019;-71
2023/10/10 06:15:09;;;;;;;5.38;3.40;;;10.30;99.90;;;;;;5025099;28;20044;-72
2023/10/10 06:17:34;;;;;;;7.22;3.97;;;10.20;99.90;;;;;;5029657;28;20032;-71
2023/10/10 06:20:06;;;;;;;6.13;3.58;;;10.20;99.90;;;;;;5032495;28;20037;-71
2023/10/10 06:22:32;;;;;;;6.03;3.55;;;10.20;99.90;;;;;;5033274;28;20037;-63
2023/10/10 06:24:58;;;;;;;4.22;3.40;;;10.30;99.90;;;;;;5026435;28;20038;-64
2023/10/10 06:27:32;;;;;;;3.63;3.05;;;10.30;99.90;;;;;;5028068;28;20411;-64
2023/10/10 06:29:58;;;;;;;8.73;3.40;;;10.30;99.90;;;;;;5024628;28;20494;-66
2023/10/10 06:32:31;;;;;;;8.30;3.40;;;10.40;99.90;;;;;;5031666;28;20049;-66
2023/10/10 06:35:51;;;;;;;;;;;10.40;99.90;;;;;;5031165;28;20037;-66
2023/10/10 06:37:43;;;;;;;5.45;3.10;;;10.40;99.90;;;;;;5013986;28;19990;-66
2023/10/10 06:40:10;;;;;;;4.70;3.28;;;10.40;99.90;;;;;;5024180;28;20037;-66
2023/10/10 06:42:36;;;;;;;6.38;4.05;;;10.40;99.90;;;;;;5022025;28;21418;-64
2023/10/10 06:45:20;;;;;;;10.05;4.70;;;10.40;99.90;;;;;;5032044;28;20677;-64
2023/10/10 06:47:50;;;;;;;9.30;4.45;;;10.40;99.90;;;;;;5022647;28;20045;-64
2023/10/10 06:50:21;;;;;;;9.23;4.72;;;10.40;99.90;;;;;;5028181;28;20056;-64
2023/10/10 06:52:52;;;;;;;8.73;4.57;;;10.50;99.90;;;;;;5026772;28;20599;-64
2023/10/10 06:55:22;;;;;;;7.97;3.80;;;10.50;99.90;;;;;;5025042;28;20436;-65
2023/10/10 06:57:59;;;;;;;8.90;4.68;;;10.50;99.90;;;;;;5036642;28;20044;-72
2023/10/10 07:00:42;;;;;;;7.65;4.22;;;10.50;99.90;;;;;;5025359;28;20044;-71
2023/10/10 07:03:08;;;;;;;10.10;4.68;;;10.60;99.90;;;;;;5026232;28;20041;-69
2023/10/10 07:05:34;;;;;;;13.20;5.43;;;10.60;99.90;;;;;;5033867;28;20135;-71
2023/10/10 07:08:12;;;;;;;9.88;4.70;;;10.60;99.90;;;;;;5017899;28;20547;-71
2023/10/10 07:10:42;;;;;;;13.93;4.97;;;10.60;99.90;;;;;;5025077;28;20037;-72
2023/10/10 07:13:18;;;;;;;12.10;5.30;;;10.70;99.90;;;;;;5030487;28;20051;-71
2023/10/10 07:15:51;;;;;;;10.10;5.38;;;10.70;99.90;;;;;;5026481;28;20040;-65
2023/10/10 07:18:22;;;;;;;12.20;5.45;;;10.60;99.90;;;;;;5034496;28;20045;-72
2023/10/10 07:21:06;;;;;;;13.20;5.85;;;10.60;99.90;;;;;;5028327;28;20057;-72
2023/10/10 07:23:37;;;;;;;11.18;5.43;;;10.60;99.90;;;;;;5037289;28;20076;-72
2023/10/10 07:26:20;;;;;;;11.98;5.80;;;10.70;99.90;;;;;;5037235;28;20443;-71
2023/10/10 07:28:49;;;;;;;10.30;5.95;;;10.60;99.90;;;;;;5033013;28;20044;-72
2023/10/10 07:31:22;;;;;;;14.02;6.00;;;10.70;99.90;;;;;;5023982;28;20037;-72
2023/10/10 07:33:56;;;;;;;13.43;6.68;;;10.80;99.90;;;;;;5035973;28;20040;-72
2023/10/10 07:36:25;;;;;;;11.32;6.35;;;10.90;99.90;;;;;;5036558;28;20079;-73
2023/10/10 07:38:54;;;;;;;11.18;6.53;;;11.00;99.90;;;;;;5023886;28;20386;-72
2023/10/10 07:41:27;;;;;;;13.57;6.85;;;11.00;99.90;;;;;;5042170;28;20108;-72
2023/10/10 07:43:56;;;;;;;14.95;7.28;;;11.10;99.90;;;;;;5019322;28;20049;-72
2023/10/10 07:46:23;;;;;;;13.18;7.00;;;11.10;99.90;;;;;;5014329;28;20033;-72
2023/10/10 07:48:54;;;;;;;14.05;6.82;;;11.10;99.90;;;;;;5016903;28;20037;-73
2023/10/10 07:51:27;;;;;;;15.65;7.13;;;11.20;99.90;;;;;;5016584;28;20065;-72
2023/10/10 07:54:01;;;;;;;12.15;6.65;;;11.10;99.90;;;;;;5017062;28;20047;-72
2023/10/10 07:56:30;;;;;;;15.05;6.68;;;11.00;99.90;;;;;;5016720;28;20041;-72
2023/10/10 07:58:57;;;;;;;15.20;7.30;;;11.00;99.90;;;;;;5016381;28;20406;-72
2023/10/10 08:01:23;;;;;;;12.38;7.20;;;11.10;99.90;;;;;;5015280;28;20141;-72
2023/10/10 08:03:49;;;;;;;11.50;6.25;;;11.10;99.90;;;;;;5014752;28;20122;-73
2023/10/10 08:06:21;;;;;;;16.73;7.95;;;11.10;99.90;;;;;;4998632;28;20076;-72
2023/10/10 08:11:38;;;;;;;11.75;6.05;;;11.20;99.90;;;;;;5018462;28;19971;-73
2023/10/10 08:14:08;;;;;;;14.23;6.97;;;11.30;99.90;;;;;;5017756;28;20037;-65
2023/10/10 08:16:35;;;;;;;14.25;6.82;;;11.20;99.90;;;;;;5017971;28;20057;-66
2023/10/10 08:19:08;;;;;;;12.82;7.03;;;11.20;99.90;;;;;;5019470;28;20045;-65
2023/10/10 08:21:39;;;;;;;12.30;6.53;;;11.20;99.90;;;;;;5013185;28;20573;-66
2023/10/10 08:24:11;;;;;;;12.55;6.78;;;11.20;99.90;;;;;;5011941;28;20048;-66
2023/10/10 08:26:40;;;;;;;12.82;6.57;;;11.20;99.90;;;;;;4987189;28;20616;-65
2023/10/10 08:29:08;;;;;;;13.13;6.75;;;11.20;99.90;;;;;;5007258;28;20129;-66
2023/10/10 08:31:36;;;;;;;13.07;6.70;;;11.20;99.90;;;;;;5015502;28;20045;-72
2023/10/10 08:34:02;;;;;;;13.07;6.40;;;11.30;99.90;;;;;;5018574;28;20025;-73
2023/10/10 08:36:27;;;;;;;12.70;6.78;;;11.40;99.90;;;;;;5016499;28;20033;-73
2023/10/10 08:39:17;;;;;;;10.60;6.53;;;11.40;99.90;;;;;;5015807;28;20480;-73
2023/10/10 08:41:43;;;;;;;12.43;6.20;;;11.40;99.90;;;;;;5018591;28;20112;-72
2023/10/10 08:44:10;;;;;;;14.32;6.30;;;11.30;99.90;;;;;;5036207;28;20105;-73
2023/10/10 08:46:46;;;;;;;9.30;5.45;;;11.30;99.90;;;;;;5028430;28;20045;-74
2023/10/10 08:49:16;;;;;;;11.73;6.13;;;11.40;99.90;;;;;;5027986;28;20041;-72
2023/10/10 08:51:42;;;;;;;11.25;6.30;;;11.50;99.90;;;;;;5035083;28;20533;-65
2023/10/10 08:54:09;;;;;;;10.45;5.68;;;11.50;99.90;;;;;;5036729;28;20044;-65
2023/10/10 08:56:39;;;;;;;9.13;5.78;;;11.50;99.90;;;;;;5036631;28;20037;-65
2023/10/10 08:59:10;;;;;;;12.40;6.80;;;11.50;99.90;;;;;;5024354;28;20046;-65
2023/10/10 09:01:36;;;;;;;12.03;6.37;;;11.50;99.90;;;;;;5024056;28;20045;-66
2023/10/10 09:04:04;;;;;;;10.10;5.75;;;11.60;99.90;;;;;;5025056;28;20286;-65
2023/10/10 09:06:58;;;;;;;12.57;5.97;;;11.60;99.90;;;;;;5031196;28;20128;-65
2023/10/10 09:09:33;;;;;;;9.55;5.55;;;11.50;99.90;;;;;;5029368;28;20052;-65
2023/10/10 09:12:02;;;;;;;9.73;5.88;;;11.60;99.90;;;;;;5027448;28;20849;-65
2023/10/10 09:14:49;;;;;;;10.88;5.50;;;11.60;99.90;;;;;;5037081;28;20107;-65
2023/10/10 09:17:28;;;;;;;7.75;4.82;;;11.60;99.90;;;;;;5036403;28;20025;-65
2023/10/10 09:19:54;;;;;;;8.52;5.05;;;11.70;99.90;;;;;;5033908;28;20032;-65
2023/10/10 09:22:42;;;;;;;10.60;5.05;;;11.70;99.90;;;;;;5026525;28;20070;-65
2023/10/10 09:25:48;;;;;;;7.60;4.40;;;11.70;99.90;;;;;;5029927;28;20066;-73
2023/10/10 09:28:16;;;;;;;9.30;4.90;;;11.70;99.90;;;;;;5024734;28;20036;-72
2023/10/10 09:30:59;;;;;;;7.95;4.65;;;11.60;99.90;;;;;;5027207;28;20918;-72
2023/10/10 09:33:33;;;;;;;10.40;4.90;;;11.50;99.90;;;;;;5022511;28;20044;-73
2023/10/10 09:36:15;;;;;;;8.18;4.47;;;11.50;99.90;;;;;;5023712;28;20792;-72
2023/10/10 09:38:46;;;;;;;7.30;4.47;;;11.50;99.90;;;;;;5015762;28;20585;-73
2023/10/10 09:49:40;;;;;;;12.05;5.55;;;11.60;99.90;;;;;;5010760;28;20908;-65
2023/10/10 10:09:19;;;;;;;9.45;4.72;;;11.90;99.90;;;;;;4943573;28;20938;-72
2023/10/10 10:11:56;;;;;;;10.82;5.68;;;11.90;99.90;;;;;;4946947;28;20050;-72
2023/10/10 10:14:35;;;;;;;10.55;5.70;;;11.90;99.90;;;;;;4942918;28;20564;-73
2023/10/10 10:17:30;;;;;;;15.55;6.80;;;11.90;99.90;;;;;;4950940;28;20106;-72
2023/10/10 10:20:19;;;;;;;13.45;7.32;;;11.90;99.90;;;;;;4946876;28;20047;-73
2023/10/10 10:22:45;;;;;;;16.00;7.70;;;11.90;99.90;;;;;;4942888;28;20761;-71
2023/10/10 10:28:14;;;;;;;25.90;14.95;;;12.00;99.90;;;;;;4945867;28;20046;-71
2023/10/10 10:30:53;;;;;;;17.30;9.60;;;12.00;99.90;;;;;;4958252;28;20045;-74
2023/10/10 10:33:23;;;;;;;12.68;6.55;;;12.00;99.90;;;;;;4953427;28;20485;-71
2023/10/10 10:35:59;;;;;;;16.60;7.18;;;11.90;99.90;;;;;;4955765;28;20039;-72
2023/10/10 10:38:25;;;;;;;16.73;6.97;;;11.80;99.90;;;;;;4956040;28;20097;-71
2023/10/10 10:41:04;;;;;;;16.23;7.30;;;11.80;99.90;;;;;;4958733;28;20113;-65
2023/10/10 10:43:49;;;;;;;13.73;5.95;;;11.80;99.90;;;;;;4960697;28;20590;-65
2023/10/10 10:46:27;;;;;;;11.35;6.15;;;11.80;99.90;;;;;;5003733;28;20050;-65
2023/10/10 10:49:05;;;;;;;10.88;5.55;;;11.70;99.90;;;;;;5024495;28;20193;-65
2023/10/10 10:51:41;;;;;;;13.18;5.80;;;11.70;99.90;;;;;;5015820;28;20049;-65
2023/10/10 10:54:08;;;;;;;11.60;5.63;;;11.70;99.90;;;;;;5014238;28;20038;-65
2023/10/10 10:59:13;;;;;;;10.20;4.80;;;11.60;99.90;;;;;;5014445;28;20750;-66
2023/10/10 11:01:59;;;;;;;8.88;5.07;;;11.60;99.90;;;;;;5015746;28;20079;-66
2023/10/10 11:07:05;;;;;;;9.45;4.88;;;11.60;99.90;;;;;;5014168;28;20046;-66
2023/10/10 11:09:34;;;;;;;10.27;4.53;;;11.60;99.90;;;;;;4991771;28;20084;-66
2023/10/10 11:12:04;;;;;;;6.88;4.80;;;11.60;99.90;;;;;;5015793;28;20069;-67
2023/10/10 11:14:34;;;;;;;9.75;4.97;;;11.70;99.90;;;;;;5011290;28;20030;-67
2023/10/10 11:17:00;;;;;;;8.77;4.60;;;11.70;99.90;;;;;;5011463;28;20095;-70
2023/10/10 11:21:55;;;;;;;9.68;4.60;;;11.80;99.90;;;;;;5012218;28;20044;-67
2023/10/10 11:24:26;;;;;;;9.23;5.50;;;11.80;99.90;;;;;;5012374;28;20040;-66
2023/10/10 11:29:48;;;;;;;11.93;6.32;;;11.90;99.90;;;;;;5013310;28;20398;-66
2023/10/10 11:32:29;;;;;;;11.40;5.40;;;11.80;99.90;;;;;;5006723;28;20407;-66
2023/10/10 11:34:56;;;;;;;8.85;5.22;;;11.90;99.90;;;;;;5007678;28;20045;-66
2023/10/10 11:37:32;;;;;;;10.55;6.22;;;11.90;99.90;;;;;;5013903;28;20124;-65
2023/10/10 11:40:30;;;;;;;11.30;6.30;;;12.00;99.90;;;;;;5012566;28;20041;-64
2023/10/10 11:43:11;;;;;;;14.38;6.13;;;12.10;99.90;;;;;;5008315;28;20060;-67
2023/10/10 11:45:41;;;;;;;8.88;6.05;;;12.10;99.90;;;;;;5012222;28;20029;-67
2023/10/10 11:48:14;;;;;;;9.77;6.63;;;12.10;99.90;;;;;;5013502;28;20044;-67
2023/10/10 11:50:48;;;;;;;15.15;6.47;;;12.10;99.90;;;;;;5011173;28;20029;-68
2023/10/10 11:53:19;;;;;;;16.75;6.70;;;12.20;99.90;;;;;;5011816;28;20049;-67
2023/10/10 11:55:45;;;;;;;16.58;7.47;;;12.20;99.90;;;;;;5015372;28;20765;-75
2023/10/10 11:58:17;;;;;;;13.35;7.22;;;12.30;99.90;;;;;;5018391;28;20045;-76
2023/10/10 12:00:44;;;;;;;13.30;6.75;;;12.30;99.90;;;;;;5013993;28;20040;-75
2023/10/10 12:03:18;;;;;;;13.95;6.65;;;12.30;99.90;;;;;;5007074;28;20045;-77
2023/10/10 12:05:47;;;;;;;11.32;6.40;;;12.40;99.90;;;;;;5012880;28;20036;-76
2023/10/10 12:08:24;;;;;;;13.57;9.25;;;12.40;99.90;;;;;;5013434;28;20045;-76
2023/10/10 12:11:12;;;;;;;17.05;9.48;;;12.50;99.90;;;;;;5013931;28;20029;-66
2023/10/10 12:13:38;;;;;;;17.70;9.10;;;12.60;99.90;;;;;;5015631;28;20056;-66
2023/10/10 12:16:10;;;;;;;73.25;35.95;;;12.60;99.90;;;;;;5014558;28;20053;-65
2023/10/10 12:18:43;;;;;;;16.85;8.77;;;12.70;99.90;;;;;;4984384;28;20045;-66
2023/10/10 12:21:14;;;;;;;11.43;7.35;;;12.80;99.90;;;;;;5009996;28;20667;-66
2023/10/10 12:23:40;;;;;;;18.60;7.40;;;12.80;99.90;;;;;;5009935;28;20041;-66
2023/10/10 12:26:08;;;;;;;11.80;6.85;;;12.90;99.90;;;;;;5011190;28;20038;-67
2023/10/10 12:28:34;;;;;;;13.68;8.27;;;12.90;99.90;;;;;;4995733;28;20538;-76
2023/10/10 12:31:03;;;;;;;15.05;7.90;;;13.00;99.90;;;;;;5006545;28;20034;-75
2023/10/10 12:33:29;;;;;;;13.55;6.72;;;12.90;99.90;;;;;;5013737;28;20715;-76
2023/10/10 12:35:56;;;;;;;16.85;8.00;;;13.00;99.90;;;;;;5008319;28;20628;-74
2023/10/10 12:38:23;;;;;;;12.70;6.90;;;12.90;99.90;;;;;;5010209;28;20038;-75
2023/10/10 12:40:52;;;;;;;16.10;7.50;;;13.00;99.90;;;;;;5014127;28;20083;-75
2023/10/10 12:43:19;;;;;;;14.13;7.13;;;13.10;99.90;;;;;;5020283;28;20118;-74
2023/10/10 12:45:51;;;;;;;14.75;7.10;;;13.30;99.90;;;;;;5036422;28;20482;-74
2023/10/10 12:48:20;;;;;;;13.30;7.95;;;13.50;99.90;;;;;;5033558;28;21407;-67
2023/10/10 12:50:47;;;;;;;13.77;6.78;;;13.60;99.90;;;;;;5033941;28;20124;-75
2023/10/10 12:53:19;;;;;;;14.82;7.45;;;13.70;99.90;;;;;;5036480;28;20198;-75
2023/10/10 12:55:48;;;;;;;13.80;7.10;;;13.90;99.90;;;;;;5038559;28;20025;-74
2023/10/10 12:58:24;;;;;;;15.57;7.85;;;14.00;99.90;;;;;;5038496;28;20037;-75
2023/10/10 13:00:51;;;;;;;11.65;7.85;;;14.20;99.90;;;;;;5039512;28;20036;-75
2023/10/10 13:03:28;;;;;;;16.88;8.90;;;14.30;99.90;;;;;;5035068;28;20095;-73
2023/10/10 13:05:58;;;;;;;16.17;9.05;;;14.50;99.90;;;;;;5040598;28;20036;-75
2023/10/10 13:11:19;;;;;;;14.73;8.45;;;15.00;99.90;;;;;;5026656;28;20489;-65
2023/10/10 13:13:48;;;;;;;14.27;6.80;;;15.20;99.90;;;;;;5031314;28;20048;-66
2023/10/10 13:18:51;;;;;;;18.80;10.48;;;15.10;99.90;;;;;;5026472;28;20037;-65
2023/10/10 13:21:19;;;;;;;18.73;11.55;;;15.00;99.90;;;;;;5033304;28;20037;-65
2023/10/10 13:23:49;;;;;;;21.08;9.20;;;15.10;99.90;;;;;;5028788;28;20048;-65
2023/10/10 13:26:22;;;;;;;18.52;9.55;;;15.20;99.90;;;;;;5025481;28;20066;-74
2023/10/10 13:28:48;;;;;;;15.93;8.13;;;15.20;99.90;;;;;;5032573;28;20076;-74
2023/10/10 13:31:18;;;;;;;27.83;8.32;;;15.40;99.90;;;;;;5025889;28;20041;-69
2023/10/10 13:33:45;;;;;;;15.85;8.85;;;15.40;99.90;;;;;;5036598;28;20049;-74
2023/10/10 13:36:12;;;;;;;13.05;7.00;;;15.50;99.90;;;;;;5027029;28;20099;-75
2023/10/10 13:38:53;;;;;;;20.80;7.95;;;15.50;99.90;;;;;;5033026;28;20056;-75
2023/10/10 13:41:22;;;;;;;13.48;6.97;;;15.60;99.90;;;;;;5037313;28;20552;-73
2023/10/10 13:43:52;;;;;;;17.23;8.25;;;15.50;99.90;;;;;;5034727;28;20088;-75
2023/10/10 13:46:20;;;;;;;11.52;7.68;;;15.60;99.90;;;;;;5019707;28;20049;-76
2023/10/10 13:48:48;;;;;;;12.98;7.35;;;15.60;99.90;;;;;;5020758;28;20754;-76
2023/10/10 13:51:16;;;;;;;13.88;7.30;;;15.60;99.90;;;;;;5029209;28;20557;-77
2023/10/10 13:53:44;;;;;;;11.15;6.97;;;15.70;99.90;;;;;;5026242;28;20103;-76
2023/10/10 13:56:12;;;;;;;13.38;6.88;;;15.60;99.90;;;;;;5032729;28;20032;-76
2023/10/10 13:58:40;;;;;;;12.95;8.32;;;15.50;99.90;;;;;;5039298;28;20097;-77
2023/10/10 14:03:48;;;;;;;15.10;8.02;;;15.80;99.90;;;;;;5035926;28;20086;-67
2023/10/10 14:06:19;;;;;;;12.95;8.70;;;15.80;99.90;;;;;;5034925;28;20120;-67
2023/10/10 14:08:49;;;;;;;16.10;8.97;;;15.70;99.90;;;;;;5029884;28;20041;-68
2023/10/10 14:11:22;;;;;;;12.93;7.07;;;15.60;99.90;;;;;;5016087;28;20087;-68
2023/10/10 14:13:49;;;;;;;16.98;7.07;;;15.60;99.90;;;;;;5036218;28;20501;-68
2023/10/10 14:16:16;;;;;;;10.05;6.35;;;15.70;99.90;;;;;;5033246;28;20029;-68
2023/10/10 14:18:49;;;;;;;12.18;7.10;;;16.00;99.90;;;;;;5023964;28;20026;-68
2023/10/10 14:21:17;;;;;;;12.70;7.38;;;16.00;99.90;;;;;;5032104;28;20044;-76
2023/10/10 14:23:46;;;;;;;11.60;6.78;;;16.30;99.90;;;;;;5035044;28;20060;-77
2023/10/10 14:26:12;;;;;;;11.95;6.25;;;16.90;99.90;;;;;;5029714;28;20041;-80
2023/10/10 14:28:49;;;;;;;9.65;6.20;;;18.60;99.90;;;;;;5028203;28;20349;-77
2023/10/10 14:31:14;;;;;;;12.45;7.18;;;20.70;99.90;;;;;;5005949;28;20765;-76
2023/10/10 14:33:40;;;;;;;13.23;7.30;;;22.30;99.90;;;;;;5024565;28;20072;-79
2023/10/10 14:36:11;;;;;;;12.00;6.90;;;23.50;99.90;;;;;;5024604;28;20025;-75
2023/10/10 14:39:01;;;;;;;11.02;6.60;;;24.60;99.80;;;;;;5018386;28;20029;-77
2023/10/10 14:41:30;;;;;;;13.13;7.50;;;25.30;97.00;;;;;;5023480;28;20658;-78
2023/10/10 14:44:03;;;;;;;11.30;7.85;;;25.90;94.50;;;;;;5011866;28;20644;-78
2023/10/10 14:46:33;;;;;;;13.20;7.75;;;26.10;92.40;;;;;;5027415;28;20069;-79
2023/10/10 14:49:01;;;;;;;13.00;6.93;;;26.40;91.70;;;;;;5023445;28;20029;-79
2023/10/10 14:51:33;;;;;;;11.48;8.10;;;26.50;90.60;;;;;;5026180;28;20033;-76
2023/10/10 14:54:13;;;;;;;18.90;8.82;;;26.40;89.40;;;;;;5026738;28;20152;-69
2023/10/10 14:56:45;;;;;;;10.18;7.13;;;25.80;89.10;;;;;;5019592;28;20040;-78
2023/10/10 14:59:18;;;;;;;10.40;7.30;;;25.60;90.00;;;;;;5023492;28;20134;-75
2023/10/10 15:01:50;;;;;;;11.95;7.45;;;25.40;90.20;;;;;;5024662;28;20041;-74
2023/10/10 15:04:18;;;;;;;11.30;7.35;;;25.70;88.70;;;;;;5022690;28;20760;-74
2023/10/10 15:06:45;;;;;;;11.55;6.82;;;25.90;88.60;;;;;;5025472;28;20124;-75
2023/10/10 15:09:14;;;;;;;12.57;7.78;;;25.90;87.50;;;;;;5023765;28;20066;-74
2023/10/10 15:11:41;;;;;;;16.27;7.50;;;24.80;88.40;;;;;;5021743;28;20137;-77
2023/10/10 15:14:12;;;;;;;11.60;7.43;;;23.40;91.00;;;;;;5031275;28;20501;-76
2023/10/10 15:16:38;;;;;;;11.00;7.30;;;23.00;92.60;;;;;;5030737;28;20050;-77
2023/10/10 15:19:08;;;;;;;11.82;7.70;;;23.40;92.30;;;;;;5023285;28;20029;-77
2023/10/10 15:21:38;;;;;;;11.07;7.28;;;23.60;91.70;;;;;;5029487;28;20040;-76
2023/10/10 15:24:11;;;;;;;14.35;8.93;;;23.70;91.60;;;;;;5032195;28;20041;-76
2023/10/10 15:26:37;;;;;;;11.68;8.07;;;23.50;91.50;;;;;;5026574;28;20037;-77
2023/10/10 15:29:03;;;;;;;13.15;7.93;;;23.20;91.70;;;;;;5037223;28;20197;-76
2023/10/10 15:31:32;;;;;;;12.35;8.55;;;22.40;92.60;;;;;;5033062;28;20037;-74
2023/10/10 15:33:58;;;;;;;12.90;8.82;;;21.20;94.40;;;;;;5035034;28;20056;-76
2023/10/10 15:36:30;;;;;;;16.13;10.30;;;20.20;96.10;;;;;;5035332;28;20061;-76
2023/10/10 15:39:05;;;;;;;17.35;9.13;;;19.30;97.90;;;;;;5033454;28;20036;-76
2023/10/10 15:41:32;;;;;;;13.38;9.00;;;18.50;99.60;;;;;;5031980;28;20029;-74
2023/10/10 15:44:04;;;;;;;16.58;9.13;;;17.90;99.90;;;;;;5031557;28;20056;-75
2023/10/10 15:46:32;;;;;;;18.58;9.15;;;17.40;99.90;;;;;;5029913;28;20071;-76
2023/10/10 15:48:59;;;;;;;13.38;8.73;;;16.90;99.90;;;;;;5027085;28;21400;-75
2023/10/10 15:51:25;;;;;;;14.68;8.68;;;16.60;99.90;;;;;;5032413;28;20029;-76
2023/10/10 15:53:54;;;;;;;16.30;8.82;;;16.20;99.90;;;;;;5028460;28;20513;-66
2023/10/10 15:56:26;;;;;;;13.23;8.65;;;15.90;99.90;;;;;;5033640;28;20118;-66
2023/10/10 15:58:53;;;;;;;14.10;7.80;;;15.60;99.90;;;;;;5035278;28;21259;-66
2023/10/10 16:01:30;;;;;;;14.55;7.65;;;15.40;99.90;;;;;;5037774;28;20037;-66
2023/10/10 16:04:05;;;;;;;17.52;7.82;;;15.20;99.90;;;;;;5038574;28;20120;-66
2023/10/10 16:06:35;;;;;;;13.73;7.38;;;14.90;99.90;;;;;;5037831;28;20545;-66
2023/10/10 16:11:36;;;;;;;14.35;7.47;;;14.40;99.90;;;;;;5035099;28;20072;-66
2023/10/10 16:14:13;;;;;;;11.68;7.00;;;14.20;99.90;;;;;;5017795;28;20044;-66
2023/10/10 16:16:46;;;;;;;12.50;7.18;;;14.00;99.90;;;;;;5035889;28;20087;-66
2023/10/10 16:19:24;;;;;;;12.57;6.35;;;13.90;99.90;;;;;;5038378;28;20031;-66